createdAt,value
2023-04-20T00:02:32.044Z,9.88
2023-04-20T00:07:52.914Z,10.30
2023-04-20T00:13:10.527Z,9.02
2023-04-20T00:18:03.061Z,8.88
2023-04-20T00:52:17.037Z,8.45
2023-04-20T00:57:25.848Z,9.88
2023-04-20T01:02:18.860Z,8.73
2023-04-20T02:41:48.966Z,7.72
2023-04-20T02:46:41.195Z,6.20
2023-04-20T02:51:34.903Z,5.97
2023-04-20T02:56:27.477Z,6.68
2023-04-20T03:08:22.032Z,5.72
2023-04-20T03:13:15.194Z,6.70
2023-04-20T03:18:17.660Z,7.67
2023-04-20T03:23:11.407Z,6.47
2023-04-20T03:28:28.243Z,6.72
2023-04-20T03:34:31.043Z,6.68
2023-04-20T03:39:23.711Z,6.10
2023-04-20T03:50:45.408Z,5.78
2023-04-20T04:01:52.223Z,6.47
2023-04-20T04:07:41.273Z,6.57
2023-04-20T04:12:34.375Z,5.70
2023-04-20T04:17:27.270Z,6.68
2023-04-20T04:22:21.515Z,5.28
2023-04-20T04:27:59.832Z,5.88
2023-04-20T04:32:55.788Z,5.00
2023-04-20T04:38:14.304Z,6.05
2023-04-20T04:43:12.868Z,5.78
2023-04-20T04:48:13.948Z,5.57
2023-04-20T04:53:35.358Z,5.57
2023-04-20T05:03:55.916Z,5.45
2023-04-20T05:08:51.201Z,4.72
2023-04-20T05:13:57.902Z,5.88
2023-04-20T05:25:14.064Z,5.75
2023-04-20T05:36:27.276Z,5.10
2023-04-20T05:41:48.055Z,5.47
2023-04-20T05:46:46.874Z,4.50
2023-04-20T05:51:39.735Z,5.47
2023-04-20T05:56:33.172Z,4.43
2023-04-20T06:01:27.293Z,4.63
2023-04-20T06:06:21.189Z,4.93
2023-04-20T06:12:06.404Z,5.00
2023-04-20T06:39:23.575Z,4.03
2023-04-20T06:44:16.192Z,4.25
2023-04-20T06:49:11.896Z,4.20
2023-04-20T06:54:06.659Z,4.18
2023-04-20T06:59:02.899Z,5.03
2023-04-20T07:03:57.231Z,4.47
2023-04-20T07:08:50.015Z,4.63
2023-04-20T07:13:43.992Z,5.38
2023-04-20T07:18:37.240Z,4.55
2023-04-20T07:24:38.659Z,3.95
2023-04-20T07:29:37.013Z,4.82
2023-04-20T07:34:31.681Z,4.10
2023-04-20T07:39:34.656Z,3.60
2023-04-20T07:44:29.239Z,4.47
2023-04-20T07:49:21.962Z,4.45
2023-04-20T07:54:15.302Z,3.90
2023-04-20T07:59:14.876Z,3.60
2023-04-20T08:04:08.761Z,3.80
2023-04-20T08:09:02.335Z,3.30
2023-04-20T08:13:57.921Z,3.95
2023-04-20T08:18:52.345Z,4.60
2023-04-20T08:23:47.397Z,3.78
2023-04-20T08:28:49.461Z,3.60
2023-04-20T08:33:42.161Z,3.70
2023-04-20T08:45:12.707Z,3.90
2023-04-20T08:50:09.633Z,11.00
2023-04-20T08:55:02.034Z,15.40
2023-04-20T08:59:54.570Z,17.53
2023-04-20T09:04:49.431Z,11.32
2023-04-20T09:09:41.896Z,9.10
2023-04-20T09:15:04.395Z,8.97
2023-04-20T09:19:56.662Z,9.00
2023-04-20T09:24:48.937Z,7.97
2023-04-20T09:29:40.978Z,7.53
2023-04-20T09:34:46.415Z,6.72
2023-04-20T09:39:52.947Z,7.25
2023-04-20T09:44:58.381Z,7.15
2023-04-20T09:50:04.461Z,7.95
2023-04-20T09:55:09.860Z,8.68
2023-04-20T10:00:14.845Z,9.55
2023-04-20T10:05:08.036Z,8.00
2023-04-20T10:10:07.862Z,8.07
2023-04-20T10:15:01.470Z,7.35
2023-04-20T10:19:54.701Z,7.95
2023-04-20T10:24:47.018Z,7.82
2023-04-20T10:29:39.022Z,6.97
2023-04-20T10:34:31.673Z,6.63
2023-04-20T10:39:26.165Z,6.53
2023-04-20T10:44:18.425Z,6.32
2023-04-20T10:49:12.665Z,5.67
2023-04-20T10:54:06.922Z,6.03
2023-04-20T10:59:09.589Z,6.13
2023-04-20T11:04:01.931Z,5.20
2023-04-20T11:08:53.889Z,5.50
2023-04-20T11:13:46.085Z,5.78
2023-04-20T11:18:59.534Z,5.00
2023-04-20T11:23:51.641Z,5.88
2023-04-20T11:28:56.289Z,6.15
2023-04-20T11:33:48.667Z,5.28
2023-04-20T11:38:42.190Z,5.70
2023-04-20T11:43:35.892Z,5.22
2023-04-20T11:48:32.004Z,4.95
2023-04-20T11:53:24.388Z,5.38
2023-04-20T11:58:16.902Z,5.60
2023-04-20T12:03:09.177Z,5.45
2023-04-20T12:08:06.204Z,4.83
2023-04-20T12:13:09.661Z,4.97
2023-04-20T12:18:01.952Z,5.53
2023-04-20T12:22:55.596Z,5.47
2023-04-20T12:27:50.005Z,4.80
2023-04-20T12:32:44.116Z,5.07
2023-04-20T12:37:37.997Z,4.88
2023-04-20T12:42:30.327Z,5.10
2023-04-20T12:47:23.009Z,4.63
2023-04-20T12:52:15.178Z,4.85
2023-04-20T12:57:09.470Z,4.93
2023-04-20T13:02:03.905Z,5.03
2023-04-20T13:06:57.328Z,3.97
2023-04-20T13:11:49.419Z,3.75
2023-04-20T13:16:42.919Z,4.68
2023-04-20T13:21:36.361Z,4.40
2023-04-20T13:26:28.569Z,4.57
2023-04-20T13:31:24.177Z,4.43
2023-04-20T13:36:43.590Z,4.72
2023-04-20T13:41:38.006Z,4.53
2023-04-20T13:46:33.441Z,4.78
2023-04-20T13:51:27.077Z,4.15
2023-04-20T13:56:26.087Z,4.10
2023-04-20T14:01:19.416Z,4.32
2023-04-20T14:06:11.399Z,4.03
2023-04-20T14:11:03.755Z,4.70
2023-04-20T14:15:55.939Z,4.63
2023-04-20T14:20:52.446Z,4.33
2023-04-20T14:25:44.496Z,3.78
2023-04-20T14:30:38.658Z,3.92
2023-04-20T14:35:31.290Z,4.80
2023-04-20T14:40:23.381Z,4.13
2023-04-20T14:45:15.535Z,4.78
2023-04-20T14:50:09.074Z,4.10
2023-04-20T14:55:01.279Z,4.28
2023-04-20T14:59:53.284Z,4.17
2023-04-20T15:04:45.804Z,4.10
2023-04-20T15:09:39.178Z,4.40
2023-04-20T15:19:26.211Z,3.75
2023-04-20T15:24:31.715Z,4.53
2023-04-20T15:29:23.719Z,4.30
2023-04-20T15:34:17.994Z,4.40
2023-04-20T15:39:10.470Z,4.55
2023-04-20T15:44:02.419Z,4.10
2023-04-20T15:48:54.449Z,4.15
2023-04-20T15:53:51.053Z,3.65
2023-04-20T15:58:44.429Z,3.63
2023-04-20T16:03:36.737Z,3.58
2023-04-20T16:08:29.135Z,4.10
2023-04-20T16:13:21.213Z,3.67
2023-04-20T16:18:13.204Z,3.83
2023-04-20T16:23:05.122Z,3.50
2023-04-20T16:27:59.555Z,3.80
2023-04-20T16:32:51.576Z,3.40
2023-04-20T16:37:43.657Z,3.60
2023-04-20T16:42:35.957Z,3.83
2023-04-20T16:47:28.289Z,3.90
2023-04-20T16:52:22.336Z,4.22
2023-04-20T16:57:14.342Z,3.90
2023-04-20T17:02:06.410Z,4.15
2023-04-20T17:06:58.497Z,4.00
2023-04-20T17:11:50.701Z,3.70
2023-04-20T17:16:44.003Z,3.50
2023-04-20T17:21:45.759Z,3.50
2023-04-20T17:26:37.930Z,3.22
2023-04-20T17:32:06.067Z,3.88
2023-04-20T17:37:00.243Z,3.80
2023-04-20T17:41:52.449Z,3.33
2023-04-20T17:46:45.960Z,3.77
2023-04-20T17:51:37.953Z,3.85
2023-04-20T17:56:31.157Z,3.50
2023-04-20T18:01:34.538Z,3.72
2023-04-20T18:06:27.950Z,3.85
2023-04-20T18:11:20.186Z,3.75
2023-04-20T18:16:12.311Z,3.70
2023-04-20T18:21:04.729Z,3.70
2023-04-20T18:25:56.780Z,3.80
2023-04-20T18:30:50.996Z,3.35
2023-04-20T18:35:45.057Z,3.50
2023-04-20T18:40:43.179Z,3.33
2023-04-20T18:45:35.706Z,3.10
2023-04-20T18:50:28.091Z,3.43
2023-04-20T18:55:21.238Z,3.43
2023-04-20T19:00:14.471Z,3.67
2023-04-20T19:05:07.032Z,3.60
2023-04-20T19:09:59.083Z,3.25
2023-04-20T19:15:02.493Z,3.40
2023-04-20T19:19:55.585Z,3.40
2023-04-20T19:29:40.974Z,3.58
2023-04-20T19:34:33.033Z,3.72
2023-04-20T19:39:25.039Z,3.40
2023-04-20T19:44:17.723Z,3.42
2023-04-20T19:49:10.021Z,4.03
2023-04-20T19:54:04.024Z,3.60
2023-04-20T19:58:56.029Z,3.75
2023-04-20T20:03:48.188Z,3.45
2023-04-20T20:08:40.324Z,3.70
2023-04-20T20:13:32.240Z,3.22
2023-04-20T20:18:24.861Z,3.40
2023-04-20T20:23:18.992Z,3.60
2023-04-20T20:28:13.051Z,3.42
2023-04-20T20:33:05.094Z,3.22
2023-04-20T20:37:59.396Z,3.97
2023-04-20T20:42:52.388Z,3.45
2023-04-20T20:52:37.824Z,3.03
2023-04-20T20:57:30.136Z,3.83
2023-04-20T21:02:22.525Z,3.60
2023-04-20T21:07:14.872Z,3.38
2023-04-20T21:12:06.894Z,3.53
2023-04-20T21:16:59.000Z,3.42
2023-04-20T21:21:51.325Z,3.30
2023-04-20T21:26:43.531Z,3.60
2023-04-20T21:31:35.631Z,3.27
2023-04-20T21:36:28.010Z,3.13
2023-04-20T21:41:19.979Z,2.90
2023-04-20T21:46:15.791Z,3.17
2023-04-20T21:51:08.124Z,3.78
2023-04-20T21:56:00.121Z,3.37
2023-04-20T22:00:52.088Z,3.40
2023-04-20T22:05:44.367Z,3.70
2023-04-20T22:10:36.964Z,3.47
2023-04-20T22:15:28.999Z,2.83
2023-04-20T22:20:21.019Z,3.17
2023-04-20T22:25:13.026Z,3.50
2023-04-20T22:30:06.494Z,3.40
2023-04-20T22:34:58.459Z,3.60
2023-04-20T22:39:50.630Z,3.15
2023-04-20T22:44:42.615Z,3.27
2023-04-20T22:49:35.150Z,3.00
2023-04-20T22:54:27.234Z,3.72
2023-04-20T22:59:19.967Z,3.17
2023-04-20T23:09:07.317Z,3.00
2023-04-20T23:13:59.231Z,3.88
2023-04-20T23:18:51.229Z,3.65
2023-04-20T23:23:43.214Z,3.65
2023-04-20T23:28:35.100Z,3.28
2023-04-20T23:33:27.025Z,3.30
2023-04-20T23:38:19.052Z,3.38
2023-04-20T23:43:11.034Z,3.10
2023-04-20T23:48:03.099Z,3.15
2023-04-20T23:52:55.315Z,2.93
2023-04-20T23:57:48.081Z,3.30
